03:20
Airports
History
Links
Donate
Help keep this website running!
PayPal
Bitcoin
This page is community maintained. The information is intended for PC simulator navigation or reference.
Always use approved charts for navigation.
CYRJ
ROBERVAL
ROBERVAL (CYRJ)
Roberval, Québec, Canada
(U)
Lat/Lng:48° 31' 12.01" N / 72° 15' 56" W
48.520002 / -72.265556
Elevation:586'ft / 179mMSL
ID / ICAO:CYRJ
Runways:1
Longest:16-34
Asphalt 1,545m / 5,069ft
METAR03:00 GMT 2017-09-21
Altimeter: 30.13
Visibility: 25.0 statute miles
Wind: 0 knots (from 000°)
Temp: 10°c / 50°f
Humidity: 87.4%

METAR: CYRJ 210300Z 00000KT 25SM SKC 10/08 A3013 RMK SLP209

(Powered by phpweather)
Airport Radio Frequencies
Tower: 122.2
Nearby VORs <50NM
Nearby NDBs
Runway 16 / 34
Dimensions:1545 x 45.7m 5069' x 150'ft
Surface:Asphalt
Edge Lights:Medium intensity
Runway 16 [A]Runway 34 [B]
Heading:142°TH 322°TH
Lat:
Lng:
48° 31' 32"N
72° 16' 19"W
48° 30' 52.01"N
72° 15' 33"W
ALS:MALSMALS
TDZ:Yes, lighted
User Notes and Comments
48° 31' 12.01" N / 72° 15' 56" W
Distance To
Airport ID:
Nearby Airports
(U) DOLBEAU ST FELICIEN 18.5 NM
CYDO NNW 344°
(U) ALMA 28.6 NM
CYTF E 91°
(C) ST HONORE 55.6 NM
CYRC E 89°
(C) BAGOTVILLE 59.7 NM
CYBG ( WX ) ESE 102°
(U) LA TUQUE 80.4 NM
CYLQ SSW 197°
(U) CHARLEVOIX 113.8 NM
CYML SE 124°
(C) Quebec/jean Lesage Intl 126.2 NM
CYQB ( WX ) SSE 161°
VFR Chart
Flight Planning at SkyVector.com